createdAt,value
2022-09-21T00:01:30.412Z,429.75
2022-09-21T00:04:03.218Z,410.65
2022-09-21T00:06:33.460Z,282.10
2022-09-21T00:09:01.305Z,428.10
2022-09-21T00:11:30.595Z,418.20
2022-09-21T00:14:01.432Z,421.25
2022-09-21T00:16:29.523Z,422.17
2022-09-21T00:18:57.081Z,434.77
2022-09-21T00:21:25.089Z,429.83
2022-09-21T00:23:52.320Z,436.77
2022-09-21T00:26:22.516Z,448.30
2022-09-21T00:28:55.037Z,430.70
2022-09-21T00:31:22.821Z,312.63
2022-09-21T00:33:51.309Z,434.58
2022-09-21T00:36:21.227Z,441.88
2022-09-21T00:38:54.480Z,443.70
2022-09-21T00:41:22.151Z,441.45
2022-09-21T00:44:19.300Z,446.92
2022-09-21T00:46:48.663Z,439.63
2022-09-21T00:49:17.450Z,439.67
2022-09-21T00:51:46.733Z,444.77
2022-09-21T00:54:20.188Z,443.60
2022-09-21T00:59:21.528Z,445.85
2022-09-21T01:01:49.932Z,445.35
2022-09-21T01:04:19.024Z,446.92
2022-09-21T01:06:48.006Z,442.13
2022-09-21T01:09:16.322Z,445.13
2022-09-21T01:12:05.379Z,450.75
2022-09-21T01:15:14.045Z,446.55
2022-09-21T01:18:05.263Z,442.83
2022-09-21T01:21:01.344Z,444.02
2022-09-21T01:23:46.825Z,454.30
2022-09-21T01:26:32.889Z,485.85
2022-09-21T01:29:12.399Z,484.35
2022-09-21T01:32:15.991Z,481.52
2022-09-21T01:34:54.586Z,338.13
2022-09-21T01:37:41.785Z,482.95
2022-09-21T01:40:23.989Z,481.45
2022-09-21T01:42:54.640Z,477.67
2022-09-21T01:45:29.634Z,483.95
2022-09-21T01:47:59.740Z,481.40
2022-09-21T01:50:32.900Z,479.48
2022-09-21T01:53:08.314Z,323.88
2022-09-21T01:55:46.482Z,480.63
2022-09-21T01:58:42.890Z,483.77
2022-09-21T02:01:15.362Z,482.15
2022-09-21T02:03:50.036Z,335.00
2022-09-21T02:06:18.979Z,482.40
2022-09-21T02:08:47.194Z,489.00
2022-09-21T02:11:14.745Z,481.30
2022-09-21T02:13:48.372Z,479.38
2022-09-21T02:16:41.922Z,481.40
2022-09-21T02:19:14.501Z,331.90
2022-09-21T02:22:10.997Z,482.70
2022-09-21T02:24:47.643Z,484.67
2022-09-21T02:27:34.649Z,488.27
2022-09-21T02:30:14.201Z,430.33
2022-09-21T02:33:00.163Z,443.33
2022-09-21T02:35:30.548Z,449.42
2022-09-21T02:38:21.359Z,448.02
2022-09-21T02:40:56.336Z,441.90
2022-09-21T02:43:28.159Z,438.20
2022-09-21T02:46:02.648Z,443.90
2022-09-21T02:48:54.233Z,444.58
2022-09-21T02:51:34.746Z,445.75
2022-09-21T02:54:06.655Z,445.52
2022-09-21T02:56:35.156Z,451.17
2022-09-21T02:59:05.787Z,448.98
2022-09-21T03:01:34.468Z,450.77
2022-09-21T03:04:02.737Z,448.35
2022-09-21T03:06:31.560Z,454.38
2022-09-21T03:08:58.910Z,457.35
2022-09-21T03:11:26.568Z,456.25
2022-09-21T03:13:53.888Z,458.05
2022-09-21T03:16:22.589Z,456.17
2022-09-21T03:18:50.287Z,455.25
2022-09-21T03:21:17.706Z,458.67
2022-09-21T03:23:45.071Z,452.65
2022-09-21T03:26:12.452Z,454.25
2022-09-21T03:28:39.786Z,451.42
2022-09-21T03:31:07.270Z,449.05
2022-09-21T03:33:34.643Z,452.45
2022-09-21T03:36:02.203Z,459.67
2022-09-21T03:38:29.581Z,449.98
2022-09-21T03:40:58.071Z,443.20
2022-09-21T03:43:25.587Z,444.17
2022-09-21T03:45:53.367Z,469.65
2022-09-21T03:48:21.772Z,447.80
2022-09-21T03:50:49.186Z,452.58
2022-09-21T03:53:16.459Z,452.02
2022-09-21T03:55:44.247Z,455.90
2022-09-21T03:58:11.625Z,458.30
2022-09-21T04:00:39.480Z,462.38
2022-09-21T04:03:06.858Z,465.65
2022-09-21T04:05:34.146Z,472.88
2022-09-21T04:08:02.677Z,491.40
2022-09-21T04:10:33.500Z,483.27
2022-09-21T04:13:03.658Z,477.63
2022-09-21T04:15:31.511Z,481.02
2022-09-21T04:17:59.422Z,483.42
2022-09-21T04:20:27.079Z,487.27
2022-09-21T04:22:54.511Z,466.05
2022-09-21T04:25:22.058Z,432.95
2022-09-21T04:27:49.871Z,433.55
2022-09-21T04:30:17.562Z,431.60
2022-09-21T04:32:45.180Z,440.17
2022-09-21T04:35:12.684Z,442.15
2022-09-21T04:37:40.056Z,442.60
2022-09-21T04:40:08.082Z,438.90
2022-09-21T04:42:35.967Z,443.27
2022-09-21T04:45:03.717Z,447.42
2022-09-21T04:47:31.582Z,452.25
2022-09-21T04:49:58.998Z,452.63
2022-09-21T04:52:26.561Z,455.17
2022-09-21T04:54:54.032Z,462.23
2022-09-21T04:57:21.420Z,465.38
2022-09-21T04:59:48.774Z,470.63
2022-09-21T05:02:16.119Z,461.38
2022-09-21T05:04:47.502Z,471.65
2022-09-21T05:07:17.720Z,471.35
2022-09-21T05:10:03.135Z,478.92
2022-09-21T05:12:32.319Z,472.23
2022-09-21T05:14:59.939Z,498.42
2022-09-21T05:17:27.676Z,499.45
2022-09-21T05:19:55.143Z,500.80
2022-09-21T05:22:22.950Z,503.30
2022-09-21T05:24:50.292Z,502.73
2022-09-21T05:27:17.747Z,496.38
2022-09-21T05:29:45.585Z,499.10
2022-09-21T05:32:13.369Z,514.75
2022-09-21T05:35:01.119Z,511.55
2022-09-21T05:37:47.088Z,503.27
2022-09-21T05:40:15.046Z,499.98
2022-09-21T05:42:42.739Z,500.30
2022-09-21T05:45:15.288Z,498.48
2022-09-21T05:47:57.771Z,501.48
2022-09-21T05:50:37.196Z,495.23
2022-09-21T05:53:31.601Z,495.90
2022-09-21T05:56:01.071Z,495.77
2022-09-21T05:59:01.939Z,493.40
2022-09-21T06:01:52.468Z,500.75
2022-09-21T06:04:20.064Z,491.38
2022-09-21T06:06:47.336Z,493.38
2022-09-21T06:09:14.913Z,497.17
2022-09-21T06:11:42.288Z,504.00
2022-09-21T06:14:09.596Z,505.88
2022-09-21T06:16:38.968Z,500.77
2022-09-21T06:19:06.533Z,501.70
2022-09-21T06:21:33.710Z,495.85
2022-09-21T06:24:01.342Z,498.88
2022-09-21T06:26:29.072Z,501.92
2022-09-21T06:28:56.403Z,502.83
2022-09-21T06:31:24.022Z,500.83
2022-09-21T06:33:51.459Z,502.40
2022-09-21T06:36:18.920Z,511.40
2022-09-21T06:38:46.308Z,510.85
2022-09-21T06:41:20.125Z,509.45
2022-09-21T06:43:49.063Z,508.70
2022-09-21T06:46:16.399Z,507.63
2022-09-21T06:48:43.933Z,508.52
2022-09-21T06:51:11.345Z,512.35
2022-09-21T06:53:38.725Z,513.40
2022-09-21T06:56:10.416Z,509.35
2022-09-21T06:58:38.526Z,509.85
2022-09-21T07:01:15.730Z,513.50
2022-09-21T07:03:43.866Z,514.03
2022-09-21T07:06:14.205Z,511.00
2022-09-21T07:11:29.979Z,513.40
2022-09-21T07:13:58.625Z,514.42
2022-09-21T07:16:26.378Z,513.67
2022-09-21T07:18:53.779Z,510.67
2022-09-21T07:21:21.462Z,509.02
2022-09-21T07:23:48.814Z,513.42
2022-09-21T07:26:16.651Z,508.73
2022-09-21T07:28:44.632Z,520.58
2022-09-21T07:31:14.900Z,515.20
2022-09-21T07:33:48.783Z,515.38
2022-09-21T07:36:17.915Z,523.88
2022-09-21T07:38:45.547Z,530.47
2022-09-21T07:41:14.009Z,540.03
2022-09-21T07:43:41.922Z,534.22
2022-09-21T07:46:12.364Z,540.13
2022-09-21T07:48:40.129Z,535.47
2022-09-21T07:51:13.892Z,527.95
2022-09-21T07:53:44.768Z,522.63
2022-09-21T07:56:15.157Z,527.50
2022-09-21T07:59:01.399Z,529.33
2022-09-21T08:01:29.819Z,526.53
2022-09-21T08:03:58.484Z,528.65
2022-09-21T08:06:28.182Z,528.22
2022-09-21T08:08:57.946Z,519.47
2022-09-21T08:11:27.660Z,535.22
2022-09-21T08:14:00.568Z,526.72
2022-09-21T08:16:29.697Z,539.47
2022-09-21T08:18:57.208Z,529.28
2022-09-21T08:21:24.677Z,540.33
2022-09-21T08:23:51.943Z,534.22
2022-09-21T08:26:20.722Z,561.88
2022-09-21T08:28:50.075Z,566.20
2022-09-21T08:31:23.204Z,567.00
2022-09-21T08:33:51.284Z,575.78
2022-09-21T08:36:19.685Z,574.63
2022-09-21T08:38:48.258Z,571.35
2022-09-21T08:41:23.910Z,446.83
2022-09-21T08:44:02.947Z,550.45
2022-09-21T08:46:32.938Z,564.97
2022-09-21T08:49:17.999Z,470.08
2022-09-21T08:51:56.548Z,435.45
2022-09-21T08:54:47.432Z,439.15
2022-09-21T08:57:16.396Z,428.60
2022-09-21T08:59:46.418Z,434.17
2022-09-21T09:02:13.966Z,442.27
2022-09-21T09:04:54.128Z,436.63
2022-09-21T09:07:27.195Z,449.33
2022-09-21T09:10:17.989Z,451.27
2022-09-21T09:13:00.296Z,458.58
2022-09-21T09:15:55.341Z,448.90
2022-09-21T09:18:56.481Z,440.33
2022-09-21T09:21:35.868Z,464.05
2022-09-21T09:24:09.514Z,457.83
2022-09-21T09:26:48.101Z,461.02
2022-09-21T09:29:21.295Z,477.20
2022-09-21T09:31:50.457Z,477.77
2022-09-21T09:34:40.406Z,477.45
2022-09-21T09:37:18.063Z,479.15
2022-09-21T09:39:57.265Z,472.73
2022-09-21T09:43:04.875Z,461.67
2022-09-21T09:45:56.814Z,456.25
2022-09-21T09:48:38.665Z,456.60
2022-09-21T09:51:08.814Z,461.00
2022-09-21T09:53:36.279Z,450.08
2022-09-21T09:56:03.965Z,447.75
2022-09-21T09:58:54.768Z,426.55
2022-09-21T10:01:46.996Z,430.65
2022-09-21T10:04:17.627Z,437.27
2022-09-21T10:06:46.933Z,437.33
2022-09-21T10:09:40.704Z,433.55
2022-09-21T10:12:24.225Z,436.33
2022-09-21T10:17:25.873Z,422.13
2022-09-21T10:20:06.278Z,371.98
2022-09-21T10:22:33.598Z,377.95
2022-09-21T10:25:05.320Z,378.52
2022-09-21T10:27:37.942Z,385.58
2022-09-21T10:30:06.358Z,99.30
2022-09-21T10:32:36.962Z,111.90
2022-09-21T10:35:10.635Z,112.90
2022-09-21T10:37:48.554Z,116.57
2022-09-21T10:40:18.789Z,117.13
2022-09-21T10:42:48.266Z,119.97
2022-09-21T10:45:19.831Z,119.97
2022-09-21T10:47:50.851Z,119.15
2022-09-21T10:50:31.891Z,109.68
2022-09-21T10:53:10.981Z,463.20
2022-09-21T10:56:04.714Z,434.48
2022-09-21T10:58:39.330Z,472.40
2022-09-21T11:01:24.700Z,466.42
2022-09-21T11:04:20.954Z,442.45
2022-09-21T11:06:54.567Z,443.17
2022-09-21T11:09:39.267Z,414.80
2022-09-21T11:12:20.330Z,413.15
2022-09-21T11:15:20.749Z,418.65
2022-09-21T11:18:14.868Z,433.30
2022-09-21T11:20:55.035Z,416.05
2022-09-21T11:24:04.544Z,434.35
2022-09-21T11:26:51.865Z,432.27
2022-09-21T11:29:35.458Z,427.55
2022-09-21T11:32:31.385Z,421.55
2022-09-21T11:35:25.147Z,416.83
2022-09-21T11:38:21.651Z,427.40
2022-09-21T11:41:08.765Z,413.20
2022-09-21T11:43:53.348Z,418.88
2022-09-21T11:46:35.017Z,422.10
2022-09-21T11:49:28.013Z,416.60
2022-09-21T11:52:25.990Z,413.85
2022-09-21T11:55:36.496Z,427.92
2022-09-21T11:58:22.424Z,422.60
2022-09-21T12:01:19.207Z,419.02
2022-09-21T12:04:32.489Z,421.83
2022-09-21T12:07:27.688Z,419.60
2022-09-21T12:10:32.269Z,419.73
2022-09-21T12:13:26.379Z,420.73
2022-09-21T12:16:03.632Z,418.23
2022-09-21T12:18:49.126Z,412.65
2022-09-21T12:21:30.482Z,420.48
2022-09-21T12:24:05.716Z,417.48
2022-09-21T12:26:39.367Z,411.80
2022-09-21T12:29:37.319Z,415.17
2022-09-21T12:32:25.663Z,403.20
2022-09-21T12:35:04.642Z,401.85
2022-09-21T12:37:58.904Z,403.42
2022-09-21T12:40:27.885Z,429.35
2022-09-21T12:43:09.376Z,425.23
2022-09-21T12:45:46.478Z,431.20
2022-09-21T12:48:34.190Z,443.95
2022-09-21T12:51:11.849Z,438.80
2022-09-21T12:53:48.506Z,417.83
2022-09-21T12:56:26.298Z,419.30
2022-09-21T12:58:59.383Z,408.65
2022-09-21T13:01:47.959Z,405.02
2022-09-21T13:04:45.720Z,427.13
2022-09-21T13:07:36.939Z,409.15
2022-09-21T13:10:31.817Z,397.45
2022-09-21T13:13:03.302Z,392.60
2022-09-21T13:15:33.296Z,392.52
2022-09-21T13:18:06.214Z,400.08
2022-09-21T13:20:36.133Z,416.15
2022-09-21T13:23:03.803Z,404.20
2022-09-21T13:25:37.786Z,382.00
2022-09-21T13:28:19.906Z,384.95
2022-09-21T13:30:48.713Z,390.13
2022-09-21T13:33:29.816Z,256.42
2022-09-21T13:36:02.542Z,263.42
2022-09-21T13:38:41.334Z,400.42
2022-09-21T13:41:17.722Z,420.25
2022-09-21T13:43:49.893Z,420.25
2022-09-21T13:46:35.559Z,405.98
2022-09-21T13:49:18.167Z,392.75
2022-09-21T13:52:06.224Z,394.08
2022-09-21T13:54:38.136Z,271.30
2022-09-21T13:57:24.181Z,446.15
2022-09-21T14:00:13.260Z,453.00
2022-09-21T14:02:51.388Z,443.77
2022-09-21T14:05:31.934Z,460.75
2022-09-21T14:08:17.499Z,456.17
2022-09-21T14:10:55.707Z,427.35
2022-09-21T14:13:28.870Z,423.30
2022-09-21T14:16:34.388Z,393.30
2022-09-21T14:19:18.066Z,368.65
2022-09-21T14:22:04.238Z,242.82
2022-09-21T14:24:38.896Z,366.85
2022-09-21T14:27:26.621Z,367.73
2022-09-21T14:30:00.191Z,366.48
2022-09-21T14:32:33.779Z,251.90
2022-09-21T14:35:11.635Z,364.77
2022-09-21T14:37:43.352Z,358.65
2022-09-21T14:40:26.885Z,364.20
2022-09-21T14:42:56.743Z,360.67
2022-09-21T14:45:46.522Z,356.13
2022-09-21T14:48:22.742Z,353.25
2022-09-21T14:51:06.067Z,354.70
2022-09-21T14:53:46.296Z,231.60
2022-09-21T14:56:34.760Z,344.60
2022-09-21T14:59:38.651Z,348.90
2022-09-21T15:02:21.210Z,241.38
2022-09-21T15:05:14.298Z,59.13
2022-09-21T15:08:00.040Z,349.40
2022-09-21T15:11:04.896Z,348.90
2022-09-21T15:13:47.817Z,336.30
2022-09-21T15:16:40.696Z,77.80
2022-09-21T15:19:16.477Z,96.32
2022-09-21T15:21:49.662Z,93.55
2022-09-21T15:24:25.154Z,98.22
2022-09-21T15:27:02.129Z,97.75
2022-09-21T15:29:31.759Z,94.93
2022-09-21T15:32:00.506Z,95.93
2022-09-21T15:34:28.619Z,75.50
2022-09-21T15:37:12.374Z,87.70
2022-09-21T15:44:37.671Z,199.10
2022-09-21T15:47:11.410Z,112.90
2022-09-21T15:49:39.735Z,121.93
2022-09-21T15:52:22.713Z,123.63
2022-09-21T15:55:00.620Z,123.50
2022-09-21T15:57:40.720Z,123.85
2022-09-21T16:00:21.573Z,125.07
2022-09-21T16:02:59.069Z,127.20
2022-09-21T16:05:26.763Z,125.55
2022-09-21T16:08:08.185Z,125.82
2022-09-21T16:10:40.836Z,108.50
2022-09-21T16:13:35.975Z,105.30
2022-09-21T16:16:12.911Z,105.97
2022-09-21T16:18:55.912Z,107.30
2022-09-21T16:21:31.146Z,107.88
2022-09-21T16:24:10.107Z,115.10
2022-09-21T16:26:39.514Z,113.57
2022-09-21T16:29:28.702Z,113.45
2022-09-21T16:32:17.565Z,111.45
2022-09-21T16:34:53.321Z,108.78
2022-09-21T16:37:24.477Z,107.75
2022-09-21T16:39:56.308Z,106.93
2022-09-21T16:42:27.258Z,109.15
2022-09-21T16:44:55.727Z,107.97
2022-09-21T16:47:25.896Z,108.53
2022-09-21T16:49:57.141Z,107.93
2022-09-21T16:52:25.478Z,108.28
2022-09-21T16:54:52.795Z,106.85
2022-09-21T16:57:20.608Z,105.40
2022-09-21T16:59:49.835Z,109.57
2022-09-21T17:02:18.367Z,110.47
2022-09-21T17:04:46.046Z,110.22
2022-09-21T17:07:14.916Z,106.13
2022-09-21T17:29:50.312Z,129.35
2022-09-21T17:32:22.345Z,131.38
2022-09-21T17:35:15.441Z,128.73
2022-09-21T17:37:43.700Z,130.65
2022-09-21T17:40:12.391Z,147.27
2022-09-21T17:42:43.438Z,136.38
2022-09-21T17:45:29.485Z,126.90
2022-09-21T17:47:57.136Z,120.13
2022-09-21T17:50:27.514Z,120.32
2022-09-21T17:53:14.932Z,121.85
2022-09-21T17:55:54.656Z,122.93
2022-09-21T17:58:42.357Z,125.25
2022-09-21T18:01:39.832Z,125.57
2022-09-21T18:04:11.065Z,126.82
2022-09-21T18:06:38.715Z,124.43
2022-09-21T18:09:06.677Z,125.53
2022-09-21T18:12:10.828Z,126.00
2022-09-21T18:14:53.303Z,126.35
2022-09-21T18:17:39.636Z,129.10
2022-09-21T18:20:24.819Z,127.13
2022-09-21T18:23:00.787Z,126.90
2022-09-21T18:25:34.971Z,124.60
2022-09-21T18:28:12.690Z,127.22
2022-09-21T18:30:48.423Z,123.43
2022-09-21T18:33:21.634Z,129.48
2022-09-21T18:36:10.840Z,132.43
2022-09-21T18:38:49.149Z,125.10
2022-09-21T18:41:43.670Z,125.63
2022-09-21T18:44:51.132Z,124.68
2022-09-21T18:47:30.584Z,121.90
2022-09-21T18:50:23.013Z,123.80
2022-09-21T18:53:29.519Z,123.05
2022-09-21T18:55:57.157Z,122.63
2022-09-21T18:58:24.863Z,124.40
2022-09-21T19:00:52.744Z,127.88
2022-09-21T19:03:20.474Z,127.45
2022-09-21T19:06:20.816Z,124.50
2022-09-21T19:08:58.848Z,125.65
2022-09-21T19:12:03.795Z,127.90
2022-09-21T19:14:52.395Z,129.00
2022-09-21T19:17:48.939Z,130.60
2022-09-21T19:20:50.017Z,128.82
2022-09-21T19:23:54.715Z,128.88
2022-09-21T19:27:03.261Z,128.93
2022-09-21T19:29:40.387Z,128.32
2022-09-21T19:32:17.486Z,127.05
2022-09-21T19:34:45.377Z,127.22
2022-09-21T19:37:12.775Z,127.65
2022-09-21T19:39:40.415Z,134.80
2022-09-21T19:42:25.445Z,144.48
2022-09-21T19:45:08.103Z,144.60
2022-09-21T19:47:53.618Z,143.65
2022-09-21T19:50:24.389Z,140.23
2022-09-21T19:52:52.619Z,130.70
2022-09-21T19:55:39.875Z,135.80
2022-09-21T19:58:26.226Z,130.57
2022-09-21T20:00:58.892Z,129.18
2022-09-21T20:03:53.914Z,130.13
2022-09-21T20:06:34.421Z,127.78
2022-09-21T20:09:56.258Z,126.80
2022-09-21T20:12:34.984Z,156.20
2022-09-21T20:15:10.882Z,145.63
2022-09-21T20:17:54.416Z,145.88
2022-09-21T20:20:29.195Z,146.52
2022-09-21T20:22:56.837Z,147.70
2022-09-21T20:25:52.697Z,150.15
2022-09-21T20:28:20.796Z,149.82
2022-09-21T20:30:48.165Z,150.45
2022-09-21T20:33:22.771Z,148.93
2022-09-21T20:35:56.017Z,150.85
2022-09-21T20:38:23.724Z,150.18
2022-09-21T20:40:51.738Z,150.93
2022-09-21T20:43:19.785Z,146.60
2022-09-21T20:45:49.483Z,134.43
2022-09-21T20:48:17.304Z,131.13
2022-09-21T20:50:47.014Z,132.05
2022-09-21T20:53:14.700Z,131.45
2022-09-21T20:55:43.915Z,129.38
2022-09-21T20:58:14.367Z,130.88
2022-09-21T21:00:42.566Z,131.88
2022-09-21T21:03:12.774Z,131.32
2022-09-21T21:05:40.024Z,132.25
2022-09-21T21:08:07.852Z,132.30
2022-09-21T21:10:35.501Z,135.40
2022-09-21T21:13:03.235Z,132.45
2022-09-21T21:15:31.887Z,133.57
2022-09-21T21:17:59.200Z,132.60
2022-09-21T21:20:26.404Z,130.68
2022-09-21T21:22:54.023Z,130.13
2022-09-21T21:25:21.217Z,129.82
2022-09-21T21:27:48.481Z,130.15
2022-09-21T21:30:15.922Z,129.68
2022-09-21T21:32:43.406Z,129.82
2022-09-21T21:35:10.636Z,159.48
2022-09-21T21:37:37.981Z,163.90
2022-09-21T21:40:05.884Z,165.50
2022-09-21T21:42:33.316Z,165.55
2022-09-21T21:45:00.528Z,162.45
2022-09-21T21:47:39.200Z,149.13
2022-09-21T21:50:08.612Z,161.88
2022-09-21T21:52:35.838Z,162.55
2022-09-21T21:55:03.896Z,158.93
2022-09-21T21:57:31.226Z,155.38
2022-09-21T21:59:58.662Z,157.00
2022-09-21T22:02:26.193Z,155.20
2022-09-21T22:04:53.660Z,151.02
2022-09-21T22:07:21.028Z,153.63
2022-09-21T22:09:48.448Z,130.70
2022-09-21T22:12:15.886Z,170.48
2022-09-21T22:14:46.549Z,169.02
2022-09-21T22:17:14.626Z,142.40
2022-09-21T22:19:43.116Z,140.73
2022-09-21T22:22:10.494Z,169.20
2022-09-21T22:24:37.776Z,165.40
2022-09-21T22:27:05.134Z,163.70
2022-09-21T22:29:32.411Z,163.95
2022-09-21T22:32:00.702Z,160.27
2022-09-21T22:34:28.139Z,155.20
2022-09-21T22:36:56.532Z,157.52
2022-09-21T22:39:24.389Z,161.48
2022-09-21T22:41:51.705Z,157.18
2022-09-21T22:44:19.016Z,157.40
2022-09-21T22:46:46.412Z,154.02
2022-09-21T22:49:13.700Z,152.27
2022-09-21T22:51:41.459Z,154.88
2022-09-21T22:54:08.816Z,153.73
2022-09-21T22:56:36.446Z,153.30
2022-09-21T22:59:05.310Z,153.43
2022-09-21T23:01:38.251Z,152.77
2022-09-21T23:04:11.426Z,153.55
2022-09-21T23:06:41.537Z,153.25
2022-09-21T23:09:13.928Z,151.45
2022-09-21T23:11:43.718Z,160.30
2022-09-21T23:14:11.628Z,149.10
2022-09-21T23:16:39.075Z,158.48
2022-09-21T23:19:07.369Z,158.70
2022-09-21T23:21:34.818Z,167.90
2022-09-21T23:24:03.261Z,164.50
2022-09-21T23:26:33.271Z,169.50
2022-09-21T23:29:02.883Z,170.30
2022-09-21T23:31:32.135Z,170.73
2022-09-21T23:34:04.168Z,168.82
2022-09-21T23:36:32.612Z,171.90
2022-09-21T23:38:59.978Z,174.23
2022-09-21T23:41:30.492Z,127.65
2022-09-21T23:43:59.035Z,151.23
2022-09-21T23:46:29.088Z,172.07
2022-09-21T23:48:57.964Z,166.98
2022-09-21T23:51:26.156Z,170.35
2022-09-21T23:53:54.033Z,168.20
2022-09-21T23:56:22.719Z,165.43
2022-09-21T23:58:51.122Z,165.23
